createdAt,value
2019-01-29T00:03:59.311Z,3.85
2019-01-29T00:10:04.076Z,3.83
2019-01-29T00:16:06.358Z,3.90
2019-01-29T00:22:08.601Z,3.75
2019-01-29T00:28:11.050Z,4.30
2019-01-29T00:34:13.264Z,3.70
2019-01-29T00:40:15.377Z,3.35
2019-01-29T00:46:17.503Z,3.05
2019-01-29T00:52:19.706Z,2.95
2019-01-29T00:58:23.177Z,3.25
2019-01-29T01:04:25.480Z,2.92
2019-01-29T01:10:27.787Z,3.02
2019-01-29T01:16:29.893Z,3.47
2019-01-29T01:22:32.760Z,4.35
2019-01-29T01:28:35.996Z,4.30
2019-01-29T01:34:38.403Z,4.33
2019-01-29T01:40:40.882Z,4.17
2019-01-29T01:46:43.240Z,4.85
2019-01-29T01:52:46.483Z,5.00
2019-01-29T01:58:48.790Z,5.08
2019-01-29T02:04:50.911Z,5.10
2019-01-29T02:10:53.260Z,5.65
2019-01-29T02:16:55.403Z,5.35
2019-01-29T02:22:58.869Z,6.33
2019-01-29T02:29:00.978Z,7.15
2019-01-29T02:35:03.332Z,6.62
2019-01-29T02:41:05.593Z,6.25
2019-01-29T02:47:07.850Z,5.10
2019-01-29T02:53:18.161Z,5.87
2019-01-29T02:59:15.385Z,5.08
2019-01-29T03:05:17.815Z,5.03
2019-01-29T03:11:21.183Z,5.25
2019-01-29T03:17:23.551Z,5.35
2019-01-29T03:23:27.653Z,5.90
2019-01-29T03:29:29.748Z,7.45
2019-01-29T03:35:33.250Z,7.35
2019-01-29T03:41:35.918Z,7.90
2019-01-29T03:47:38.026Z,6.53
2019-01-29T03:53:40.135Z,7.10
2019-01-29T03:59:42.431Z,8.83
2019-01-29T04:05:44.622Z,11.53
2019-01-29T04:11:46.928Z,9.48
2019-01-29T04:17:53.417Z,8.40
2019-01-29T04:23:56.992Z,8.88
2019-01-29T04:29:59.120Z,9.28
2019-01-29T04:36:01.419Z,9.60
2019-01-29T04:42:03.840Z,8.95
2019-01-29T04:48:08.284Z,8.90
2019-01-29T04:54:10.390Z,8.90
2019-01-29T05:00:23.719Z,8.83
2019-01-29T05:06:26.012Z,8.63
2019-01-29T05:12:29.418Z,9.55
2019-01-29T05:18:32.220Z,9.00
2019-01-29T05:24:34.552Z,7.80
2019-01-29T05:30:38.038Z,6.72
2019-01-29T05:36:40.299Z,7.78
2019-01-29T05:42:42.627Z,6.20
2019-01-29T05:48:44.721Z,6.78
2019-01-29T05:54:49.242Z,6.40
2019-01-29T06:00:51.574Z,6.05
2019-01-29T06:06:55.370Z,5.37
2019-01-29T06:12:57.863Z,5.12
2019-01-29T06:19:02.264Z,5.85
2019-01-29T06:25:04.643Z,5.53
2019-01-29T06:31:07.212Z,5.67
2019-01-29T06:37:10.956Z,5.80
2019-01-29T06:43:13.097Z,6.42
2019-01-29T06:49:15.343Z,6.97
2019-01-29T06:55:19.066Z,10.50
2019-01-29T07:01:21.745Z,8.05
2019-01-29T07:07:24.147Z,10.58
2019-01-29T07:13:28.734Z,10.15
2019-01-29T07:19:32.266Z,9.83
2019-01-29T07:25:34.416Z,9.93
2019-01-29T07:31:37.325Z,10.48
2019-01-29T07:37:39.574Z,10.75
2019-01-29T07:43:41.710Z,9.00
2019-01-29T07:49:44.437Z,8.60
2019-01-29T07:55:47.271Z,8.30
2019-01-29T08:01:49.843Z,7.37
2019-01-29T08:07:52.145Z,8.83
2019-01-29T08:13:54.265Z,8.95
2019-01-29T08:19:57.175Z,8.15
2019-01-29T08:25:59.501Z,7.78
2019-01-29T08:32:01.661Z,8.30
2019-01-29T08:38:04.128Z,7.58
2019-01-29T08:44:06.315Z,7.53
2019-01-29T08:50:11.674Z,6.90
2019-01-29T08:56:14.152Z,7.42
2019-01-29T09:02:16.478Z,7.30
2019-01-29T09:08:18.761Z,7.28
2019-01-29T09:14:20.966Z,6.10
2019-01-29T09:20:23.123Z,5.58
2019-01-29T09:26:25.423Z,6.33
2019-01-29T09:32:27.922Z,6.70
2019-01-29T09:38:30.328Z,7.87
2019-01-29T09:44:32.487Z,8.20
2019-01-29T09:50:35.246Z,8.03
2019-01-29T09:56:41.828Z,8.08
2019-01-29T10:02:46.091Z,8.38
2019-01-29T10:08:48.220Z,7.47
2019-01-29T10:14:50.514Z,7.85
2019-01-29T10:20:52.650Z,7.58
2019-01-29T10:26:54.985Z,7.65
2019-01-29T10:32:57.200Z,7.30
2019-01-29T10:38:59.350Z,8.25
2019-01-29T10:45:01.747Z,6.60
2019-01-29T10:51:03.909Z,6.78
2019-01-29T10:57:06.383Z,6.80
2019-01-29T11:03:11.660Z,6.58
2019-01-29T11:09:14.423Z,7.15
2019-01-29T11:15:19.590Z,6.65
2019-01-29T11:21:21.737Z,6.62
2019-01-29T11:27:25.186Z,6.95
2019-01-29T11:33:27.343Z,7.28
2019-01-29T11:39:29.814Z,7.10
2019-01-29T11:45:37.806Z,7.12
2019-01-29T11:51:40.087Z,7.08
2019-01-29T11:57:42.412Z,7.78
2019-01-29T12:03:46.220Z,7.42
2019-01-29T12:09:48.791Z,8.25
2019-01-29T12:15:51.219Z,8.95
2019-01-29T12:21:53.327Z,8.68
2019-01-29T12:27:55.790Z,8.75
2019-01-29T12:33:59.423Z,9.03
2019-01-29T12:40:01.832Z,9.83
2019-01-29T12:46:04.902Z,10.85
2019-01-29T12:52:09.118Z,7.97
2019-01-29T12:58:11.360Z,7.42
2019-01-29T13:04:13.736Z,7.33
2019-01-29T13:10:18.815Z,7.40
2019-01-29T13:16:21.274Z,6.42
2019-01-29T13:22:23.393Z,6.60
2019-01-29T13:28:26.346Z,6.42
2019-01-29T13:34:29.001Z,6.85
2019-01-29T13:40:31.410Z,9.15
2019-01-29T13:46:34.041Z,10.43
2019-01-29T13:52:36.752Z,8.78
2019-01-29T13:58:38.894Z,8.45
2019-01-29T14:04:41.166Z,7.10
2019-01-29T14:10:43.601Z,7.17
2019-01-29T14:16:46.026Z,6.90
2019-01-29T14:22:49.462Z,5.90
2019-01-29T14:28:53.252Z,4.90
2019-01-29T14:34:56.191Z,5.08
2019-01-29T14:41:00.748Z,5.12
2019-01-29T14:47:03.935Z,5.10
2019-01-29T14:53:06.378Z,6.15
2019-01-29T14:59:11.771Z,5.80
2019-01-29T15:05:14.049Z,6.62
2019-01-29T15:11:19.167Z,7.12
2019-01-29T15:17:24.303Z,6.47
2019-01-29T15:23:26.468Z,5.97
2019-01-29T15:29:28.821Z,6.45
2019-01-29T15:35:31.524Z,6.22
2019-01-29T15:41:34.059Z,6.00
2019-01-29T15:47:36.510Z,6.72
2019-01-29T15:53:39.106Z,6.85
2019-01-29T15:59:42.965Z,7.67
2019-01-29T16:05:45.495Z,6.55
2019-01-29T16:11:50.573Z,5.50
2019-01-29T16:17:52.795Z,6.22
2019-01-29T16:23:55.424Z,6.40
2019-01-29T16:29:57.819Z,5.80
2019-01-29T16:36:00.425Z,5.58
2019-01-29T16:42:09.655Z,5.42
2019-01-29T16:48:12.970Z,5.70
2019-01-29T16:54:15.676Z,7.30
2019-01-29T17:00:23.170Z,13.62
2019-01-29T17:06:25.415Z,26.33
2019-01-29T17:12:27.595Z,29.42
2019-01-29T17:18:29.969Z,50.12
2019-01-29T17:24:32.943Z,59.40
2019-01-29T17:30:40.187Z,75.35
2019-01-29T17:36:42.431Z,45.48
2019-01-29T17:42:46.093Z,20.88
2019-01-29T17:48:48.565Z,12.43
2019-01-29T17:54:52.013Z,10.90
2019-01-29T18:00:57.811Z,8.93
2019-01-29T18:07:00.175Z,9.78
2019-01-29T18:13:02.764Z,10.00
2019-01-29T18:19:05.954Z,10.68
2019-01-29T18:25:08.875Z,11.93
2019-01-29T18:31:11.288Z,35.50
2019-01-29T18:37:13.676Z,22.25
2019-01-29T18:43:16.070Z,23.27
2019-01-29T18:49:18.281Z,15.83
2019-01-29T18:55:20.672Z,14.03
2019-01-29T19:01:22.887Z,14.13
2019-01-29T19:07:25.024Z,13.22
2019-01-29T19:13:27.414Z,11.93
2019-01-29T19:19:29.790Z,16.30
2019-01-29T19:25:32.056Z,14.50
2019-01-29T19:31:36.073Z,15.38
2019-01-29T19:37:38.293Z,14.30
2019-01-29T19:43:41.494Z,14.38
2019-01-29T19:49:43.742Z,14.20
2019-01-29T19:55:46.065Z,15.25
2019-01-29T20:01:48.579Z,15.40
2019-01-29T20:07:51.049Z,13.85
2019-01-29T20:13:54.455Z,14.70
2019-01-29T20:19:56.725Z,15.45
2019-01-29T20:25:59.257Z,15.30
2019-01-29T20:32:01.752Z,15.72
2019-01-29T20:38:04.617Z,14.43
2019-01-29T20:44:07.816Z,15.53
2019-01-29T20:50:15.975Z,14.85
2019-01-29T20:56:19.027Z,15.83
2019-01-29T21:02:22.558Z,14.25
2019-01-29T21:08:24.937Z,15.13
2019-01-29T21:14:27.248Z,14.10
2019-01-29T21:20:30.598Z,15.18
2019-01-29T21:26:32.763Z,14.30
2019-01-29T21:32:35.062Z,14.75
2019-01-29T21:38:37.315Z,14.35
2019-01-29T21:44:39.599Z,15.40
2019-01-29T21:50:41.918Z,14.47
2019-01-29T21:56:44.151Z,13.95
2019-01-29T22:02:46.375Z,14.63
2019-01-29T22:08:48.611Z,13.20
2019-01-29T22:14:50.730Z,13.18
2019-01-29T22:20:53.239Z,13.10
2019-01-29T22:26:55.875Z,13.05
2019-01-29T22:32:58.284Z,13.53
2019-01-29T22:39:02.883Z,13.60
2019-01-29T22:45:06.735Z,13.38
2019-01-29T22:51:08.846Z,12.93
2019-01-29T22:57:11.209Z,12.15
2019-01-29T23:03:13.419Z,12.37
2019-01-29T23:09:15.632Z,12.00
2019-01-29T23:15:18.505Z,12.05
2019-01-29T23:21:20.978Z,13.50
2019-01-29T23:27:23.250Z,14.73
2019-01-29T23:33:26.222Z,14.85
2019-01-29T23:39:28.507Z,16.35
2019-01-29T23:45:30.750Z,15.13
2019-01-29T23:51:32.891Z,13.93
2019-01-29T23:57:35.019Z,13.00
